• Join FlightAware (Why Join?)
  • Login
  • US Flag 
08:03PM EST


 

Airport Tracker/Info


-or-


 

Live Flight TrackerFlight Track Log ✈ ASH3770 ✈ 10-May-2013 ✈ KIAD - KPIT

Flight Track Log - Related Links

Times and Time Zones

All times are in EDT time to prevent confusion due to time zone crossing. See the ASH3770 flight status page for this flight to view local times or setup timezone preferences in your user account.

Time Position Orientation Groundspeed Altitude Reporting Facility
EDT Latitude Longitude Course Direction KTS MPH feet Rate Location/Type
05:27PM 38.9500 -77.5000 290° West 178 205 1,300  Level Potomac TRACON
05:28PM 38.9833 -77.5833 297° West 240 276 3,000 2,100 Climbing Potomac TRACON
05:29PM 39.0500 -77.6167 339° North 298 343 5,600 2,820 Climbing Potomac TRACON
05:30PM 39.3334 -77.5583 344° North  Level FlightAware Approximate
05:30PM 39.1417 -77.6522 343° North 297 342 9,300  Level Washington Center
05:31PM 39.4356 -77.5833 North  Level FlightAware Approximate
05:31PM 39.2183 -77.6811 344° North 302 348 12,000  Level Washington Center
05:32PM 39.4814 -77.6934 290° West  Level FlightAware Approximate
05:32PM 39.3056 -77.6972 352° North 302 348 14,300  Level Washington Center
05:33PM 39.3931 -77.7078 355° North 307 353 16,200 1,620 Climbing Washington Center
05:34PM 39.4844 -77.7239 352° North 316 364 17,600 1,200 Climbing Washington Center
05:35PM 39.5283 -77.8247 299° West 287 330 18,700 540 Climbing Washington Center
05:38PM 39.6489 -78.2267 291° West 384 442 20,000 240 Climbing Cleveland Center
05:39PM 39.6867 -78.3442 293° West 367 422 20,000  Level Cleveland Center
05:40PM 39.7200 -78.4592 291° West 354 407 20,000 -240 Level Cleveland Center
05:41PM 39.7514 -78.5714 290° West 348 400 19,600 -1,320 Descending Cleveland Center
05:42PM 39.8156 -78.6778 308° West 336 387 17,400 -2,100 Descending Cleveland Center
05:43PM 39.8839 -78.7678 315° West 336 387 15,500 -1,620 Descending Cleveland Center
05:44PM 39.9681 -78.8278 331° Northwest 342 394 14,200 -720 Descending Cleveland Center
05:45PM 40.0439 -78.8747 335° Northwest 326 375 14,100 -60 Descending Cleveland Center
05:46PM 40.1236 -78.9133 340° North 304 350 14,100 -60 Level Cleveland Center
05:47PM 40.1994 -78.9658 332° Northwest 304 350 14,000  Descending Cleveland Center
05:48PM 40.2197 -79.0606 286° West 269 310 14,100  Climbing Cleveland Center
05:49PM 40.2167 -79.1667 268° West 261 300 14,100  Level Cleveland Center
05:50PM 40.2158 -79.2700 269° West 277 319 14,100 -720 Level Cleveland Center
05:51PM 40.2608 -79.3697 301° West 289 333 12,700 -1,500 Descending Cleveland Center
05:52PM 40.3036 -79.4642 301° West 300 345 11,200 -1,320 Descending Cleveland Center
05:53PM 40.3336 -79.5644 291° West 300 345 10,100 -600 Descending Cleveland Center
05:54PM 40.3533 -79.6622 285° West 285 328 10,000 -600 Descending Cleveland Center
05:55PM 40.3892 -79.7325 304° West 248 285 8,900 -1,140 Descending Cleveland Center
05:56PM 40.4625 -79.7644 342° North 241 277 7,800 -1,020 Descending Cleveland Center
05:57PM 40.4983 -79.8214 310° West 207 238 6,900 -960 Descending Cleveland Center
05:58PM 40.4819 -79.8897 253° West 176 203 5,900 -960 Descending Cleveland Center
05:59PM 40.4761 -79.9581 264° West 181 208 5,000 -900 Descending Cleveland Center
06:00PM 40.4806 -80.0100 276° West 174 200 4,100 -900 Descending Cleveland Center